Station Historical Data
Daily Summary for October 27, 2017 Units:  Metric    English   Both
« Previous Day
Next Day »
Daily Weekly Monthly Yearly Custom
  High: Low: Average:
Temperature: 21.8 °C 6.5 °C 14 °C
Dew Point: 12.9 °C 5.3 °C 8.9 °C
Humidity: 93% 49% 74%
Wind Speed: 5.6km/h 0km/h 0.5km/h
Wind Gust: 5.6km/h - -
Wind- - West
Pressure: 1019.9 hPa 1015.1 hPa -
Precipitation: 0 mm    
Historical Graphs
 
 
Tabular Data for October 27, 2017
Time Temperature Dew Point Pressure Wind Wind Speed Wind Gust Humidity Rainfall Rate (Hourly) Conditions
00:01 9.8 °C 7.9 °C 1018.2 hPa Calm     88% 0 mm CLR
00:06 9.8 °C 7.9 °C 1017.8 hPa Calm     88% 0 mm CLR
00:11 9.7 °C 7.8 °C 1017.8 hPa Calm     88% 0 mm CLR
00:16 9.7 °C 7.8 °C 1017.8 hPa Calm     88% 0 mm CLR
00:22 9.6 °C 7.9 °C 1018.2 hPa Calm     89% 0 mm CLR
00:27 9.6 °C 7.8 °C 1017.8 hPa Calm     89% 0 mm CLR
00:32 9.4 °C 7.7 °C 1018.2 hPa Calm     89% 0 mm CLR
00:37 9.4 °C 7.7 °C 1018.2 hPa Calm     89% 0 mm CLR
00:42 9.3 °C 7.6 °C 1018.2 hPa Calm     89% 0 mm CLR
00:47 9.2 °C 7.5 °C 1018.2 hPa Calm     89% 0 mm CLR
00:52 9.2 °C 7.4 °C 1018.2 hPa Calm     89% 0 mm CLR
00:57 9.1 °C 7.4 °C 1018.2 hPa Calm     89% 0 mm CLR
01:03 9.1 °C 7.5 °C 1018.2 hPa Calm     90% 0 mm CLR
01:08 9 °C 7.4 °C 1018.2 hPa Calm     90% 0 mm CLR
01:13 8.9 °C 7.3 °C 1018.2 hPa Calm     90% 0 mm CLR
01:18 8.8 °C 7.3 °C 1018.2 hPa Calm     90% 0 mm CLR
01:23 8.8 °C 7.2 °C 1017.8 hPa Calm     90% 0 mm CLR
01:28 8.7 °C 7.2 °C 1018.2 hPa Calm     90% 0 mm CLR
01:33 8.7 °C 7.1 °C 1018.2 hPa Calm     90% 0 mm CLR
01:38 8.6 °C 7.1 °C 1018.2 hPa Calm     90% 0 mm CLR
01:44 8.6 °C 7 °C 1018.2 hPa Calm     90% 0 mm CLR
01:49 8.4 °C 6.9 °C 1018.2 hPa Calm     90% 0 mm CLR
01:54 8.4 °C 6.8 °C 1018.2 hPa Calm     90% 0 mm CLR
01:59 8.3 °C 6.8 °C 1018.2 hPa Calm     90% 0 mm CLR
02:04 8.3 °C 6.7 °C 1018.2 hPa Calm     90% 0 mm CLR
02:09 8.3 °C 6.7 °C 1018.2 hPa Calm     90% 0 mm CLR
02:14 8.3 °C 6.9 °C 1018.2 hPa Calm     91% 0 mm CLR
02:19 8.3 °C 6.9 °C 1018.2 hPa Calm     91% 0 mm CLR
02:24 8.3 °C 6.9 °C 1018.2 hPa Calm     91% 0 mm CLR
02:30 8.4 °C 7.1 °C 1018.2 hPa Calm     91% 0 mm CLR
02:35 8.4 °C 7 °C 1018.2 hPa Calm     91% 0 mm CLR
02:40 8.4 °C 7 °C 1018.2 hPa Calm     91% 0 mm CLR
02:45 8.3 °C 6.9 °C 1018.2 hPa Calm     91% 0 mm CLR
02:50 8.3 °C 6.9 °C 1018.2 hPa Calm     91% 0 mm CLR
02:55 8.2 °C 6.8 °C 1018.2 hPa Calm     91% 0 mm CLR
03:00 8.2 °C 6.8 °C 1018.2 hPa Calm     91% 0 mm CLR
03:05 8.3 °C 6.9 °C 1018.2 hPa Calm     91% 0 mm CLR
03:10 8.2 °C 6.8 °C 1018.2 hPa Calm     91% 0 mm CLR
03:15 8.2 °C 6.8 °C 1018.2 hPa Calm     91% 0 mm CLR
03:20 8.2 °C 6.8 °C 1018.2 hPa Calm     91% 0 mm CLR
03:25 8.1 °C 6.7 °C 1018.2 hPa Calm     91% 0 mm CLR
03:30 8.1 °C 6.7 °C 1018.2 hPa Calm     91% 0 mm CLR
03:35 8.1 °C 6.7 °C 1018.2 hPa Calm     91% 0 mm CLR
03:40 8.1 °C 6.7 °C 1018.2 hPa Calm     91% 0 mm CLR
03:45 8.1 °C 6.7 °C 1018.2 hPa Calm     91% 0 mm CLR
03:50 8.1 °C 6.7 °C 1018.2 hPa Calm     91% 0 mm CLR
03:55 8 °C 6.6 °C 1018.2 hPa Calm     91% 0 mm CLR
04:00 7.9 °C 6.6 °C 1018.2 hPa Calm     91% 0 mm CLR
04:05 7.9 °C 6.5 °C 1018.2 hPa Calm     91% 0 mm CLR
04:10 7.9 °C 6.5 °C 1018.2 hPa Calm     91% 0 mm CLR
04:15 8 °C 6.8 °C 1018.2 hPa Calm     92% 0 mm CLR
04:20 8.1 °C 6.8 °C 1018.2 hPa Calm     92% 0 mm CLR
04:25 8.1 °C 6.7 °C 1018.2 hPa Calm     91% 0 mm CLR
04:30 8.1 °C 6.9 °C 1018.2 hPa Calm     92% 0 mm CLR
04:35 8 °C 6.7 °C 1018.2 hPa Calm     91% 0 mm CLR
04:40 7.9 °C 6.6 °C 1018.2 hPa Calm     91% 0 mm CLR
04:45 8 °C 6.6 °C 1018.2 hPa Calm     91% 0 mm CLR
04:50 7.9 °C 6.5 °C 1018.2 hPa Calm     91% 0 mm CLR
04:55 7.8 °C 6.4 °C 1018.2 hPa Calm     91% 0 mm CLR
05:00 7.7 °C 6.3 °C 1018.2 hPa Calm     91% 0 mm CLR
05:05 7.6 °C 6.2 °C 1018.2 hPa Calm     91% 0 mm CLR
05:10 7.6 °C 6.2 °C 1018.2 hPa Calm     91% 0 mm CLR
05:15 7.6 °C 6.2 °C 1018.2 hPa Calm     91% 0 mm CLR
05:20 7.6 °C 6.2 °C 1018.2 hPa Calm     91% 0 mm CLR
05:25 7.5 °C 6.1 °C 1018.5 hPa Calm     91% 0 mm CLR
05:30 7.5 °C 6.1 °C 1018.5 hPa Calm     91% 0 mm CLR
05:35 7.4 °C 6.2 °C 1018.5 hPa Calm     92% 0 mm CLR
05:40 7.5 °C 6.3 °C 1018.5 hPa Calm     92% 0 mm CLR
05:50 7.4 °C 6.2 °C 1018.8 hPa Calm     92% 0 mm CLR
05:55 7.4 °C 6.2 °C 1018.8 hPa Calm     92% 0 mm CLR
06:00 7.4 °C 6.2 °C 1018.8 hPa Calm     92% 0 mm CLR
06:05 7.3 °C 6.1 °C 1018.8 hPa Calm     92% 0 mm CLR
06:10 7.2 °C 5.8 °C 1018.8 hPa Calm     91% 0 mm CLR
06:15 7.2 °C 5.8 °C 1018.8 hPa Calm     91% 0 mm CLR
06:20 7.2 °C 5.9 °C 1018.8 hPa Calm     92% 0 mm CLR
06:25 7.1 °C 5.9 °C 1019.2 hPa Calm     92% 0 mm CLR
06:26 7.2 °C 5.9 °C 1019.2 hPa Calm     92% 0 mm CLR
06:31 7.1 °C 5.9 °C 1018.8 hPa Calm     92% 0 mm CLR
06:36 7.1 °C 5.8 °C 1019.2 hPa Calm     92% 0 mm CLR
06:41 7 °C 5.8 °C 1019.2 hPa Calm     92% 0 mm CLR
06:46 6.9 °C 5.7 °C 1019.2 hPa Calm     92% 0 mm CLR
06:51 6.9 °C 5.7 °C 1019.2 hPa Calm     92% 0 mm CLR
06:57 6.9 °C 5.7 °C 1019.2 hPa Calm     92% 0 mm CLR
07:02 6.8 °C 5.6 °C 1019.2 hPa Calm     92% 0 mm CLR
07:07 6.8 °C 5.6 °C 1019.2 hPa Calm     92% 0 mm CLR
07:12 6.8 °C 5.6 °C 1019.2 hPa Calm     92% 0 mm CLR
07:17 6.7 °C 5.5 °C 1019.2 hPa Calm     92% 0 mm CLR
07:22 6.7 °C 5.5 °C 1019.2 hPa Calm     92% 0 mm CLR
07:27 6.7 °C 5.4 °C 1019.2 hPa Calm     92% 0 mm CLR
07:32 6.6 °C 5.4 °C 1019.2 hPa Calm     92% 0 mm CLR
07:38 6.6 °C 5.4 °C 1019.2 hPa Calm     92% 0 mm CLR
07:43 6.6 °C 5.4 °C 1019.2 hPa Calm     92% 0 mm CLR
07:48 6.6 °C 5.3 °C 1019.2 hPa Calm     92% 0 mm CLR
07:53 6.6 °C 5.3 °C 1019.2 hPa Calm     92% 0 mm CLR
07:58 6.6 °C 5.3 °C 1019.2 hPa Calm     92% 0 mm CLR
08:03 6.5 °C 5.3 °C 1019.2 hPa Calm     92% 0 mm FEW
08:08 6.6 °C 5.3 °C 1019.2 hPa Calm     92% 0 mm FEW
08:13 6.5 °C 5.3 °C 1019.5 hPa Calm     92% 0 mm FEW
08:19 6.6 °C 5.4 °C 1019.2 hPa Calm     92% 0 mm FEW
08:24 6.8 °C 5.7 °C 1019.2 hPa Calm     93% 0 mm FEW
08:29 6.8 °C 5.6 °C 1019.2 hPa Calm     92% 0 mm FEW
08:34 6.9 °C 5.9 °C 1019.5 hPa Calm     93% 0 mm FEW
08:39 7 °C 5.9 °C 1019.5 hPa Calm     93% 0 mm FEW
08:44 7.1 °C 6 °C 1019.5 hPa Calm     93% 0 mm FEW
08:49 7.2 °C 6.1 °C 1019.5 hPa Calm     93% 0 mm FEW
08:54 7.4 °C 6.4 °C 1019.5 hPa Calm     93% 0 mm FEW
09:00 7.6 °C 6.6 °C 1019.5 hPa Calm     93% 0 mm FEW
09:05 7.8 °C 6.7 °C 1019.5 hPa Calm     93% 0 mm CLR
09:10 8.1 °C 7 °C 1019.5 hPa Calm     93% 0 mm CLR
09:15 8.3 °C 7.2 °C 1019.5 hPa Calm     93% 0 mm CLR
09:20 8.5 °C 7.4 °C 1019.5 hPa Calm     93% 0 mm CLR
09:25 8.7 °C 7.7 °C 1019.5 hPa Calm     93% 0 mm CLR
09:30 9 °C 7.9 °C 1019.5 hPa Calm     93% 0 mm CLR
09:35 9.3 °C 8.2 °C 1019.5 hPa Calm     93% 0 mm CLR
09:40 9.5 °C 8.4 °C 1019.5 hPa Calm     93% 0 mm CLR
09:45 9.8 °C 8.8 °C 1019.9 hPa Calm     93% 0 mm CLR
09:50 10.2 °C 9 °C 1019.9 hPa Calm     92% 0 mm CLR
09:55 10.8 °C 9.2 °C 1019.9 hPa Calm     90% 0 mm CLR
10:00 11.2 °C 9.3 °C 1019.9 hPa Calm     88% 0 mm CLR
10:05 11.7 °C 9.6 °C 1019.9 hPa Calm     87% 0 mm CLR
10:10 12.1 °C 9.5 °C 1019.9 hPa Calm     84% 0 mm CLR
10:15 12.4 °C 9.6 °C 1019.9 hPa Calm     83% 0 mm CLR
10:20 12.7 °C 9.8 °C 1019.9 hPa Calm     83% 0 mm CLR
10:25 12.9 °C 9.9 °C 1019.9 hPa Calm     82% 0 mm CLR
10:30 13.2 °C 10 °C 1019.9 hPa Calm     81% 0 mm CLR
10:35 13.4 °C 10.3 °C 1019.9 hPa Calm     81% 0 mm CLR
10:40 13.8 °C 10.6 °C 1019.9 hPa Calm     81% 0 mm CLR
10:45 14.4 °C 10.8 °C 1019.9 hPa Calm     79% 0 mm CLR
10:50 15 °C 10.4 °C 1019.9 hPa Calm     74% 0 mm CLR
10:55 15.4 °C 10.6 °C 1019.9 hPa Calm     73% 0 mm CLR
11:00 15.9 °C 10.8 °C 1019.9 hPa Calm     72% 0 mm CLR
11:05 16.6 °C 10.4 °C 1019.9 hPa Calm     67% 0 mm CLR
11:10 17.2 °C 10.3 °C 1019.9 hPa WNW 1.6 km/h 1.6 km/h 64% 0 mm CLR
11:11 17.3 °C 10.4 °C 1019.9 hPa Calm     64% 0 mm CLR
11:16 17.5 °C 10.1 °C 1019.5 hPa NNE 1.9 km/h   62% 0 mm CLR
11:21 17.8 °C 10.9 °C 1019.5 hPa Calm     64% 0 mm CLR
11:26 18 °C 10.6 °C 1019.5 hPa West 1.6 km/h 1.6 km/h 62% 0 mm CLR
11:32 18 °C 11.1 °C 1019.5 hPa West 1.9 km/h   64% 0 mm CLR
11:37 18.3 °C 11.1 °C 1019.5 hPa WNW 1.9 km/h   63% 0 mm CLR
11:42 18.3 °C 10.9 °C 1019.5 hPa Calm     62% 0 mm CLR
11:47 18.5 °C 10.6 °C 1019.5 hPa Calm   0.2 km/h 60% 0 mm CLR
11:52 18.6 °C 10.9 °C 1019.5 hPa West 1.9 km/h 1.9 km/h 61% 0 mm CLR
11:57 18.7 °C 11 °C 1019.5 hPa WNW 1.9 km/h 1.9 km/h 61% 0 mm CLR
12:02 18.7 °C 10.7 °C 1019.5 hPa WNW 1.6 km/h 1.6 km/h 60% 0 mm FEW
12:07 18.6 °C 11.2 °C 1019.2 hPa NE 3.2 km/h 3.2 km/h 62% 0 mm FEW
12:12 18.7 °C 11.8 °C 1019.2 hPa NNW 1.9 km/h   64% 0 mm FEW
12:17 18.9 °C 11.4 °C 1019.2 hPa West 1.9 km/h 1.9 km/h 62% 0 mm FEW
12:23 18.9 °C 11.3 °C 1019.2 hPa North 1.9 km/h 1.9 km/h 61% 0 mm FEW
12:28 18.9 °C 11.7 °C 1019.2 hPa WNW 1.9 km/h 1.9 km/h 63% 0 mm FEW
12:33 19.1 °C 11.6 °C 1019.2 hPa WNW 1.9 km/h 1.9 km/h 62% 0 mm FEW
12:38 19.1 °C 12.1 °C 1018.8 hPa Calm     64% 0 mm FEW
12:43 19.3 °C 12.3 °C 1018.8 hPa WNW 5.6 km/h 5.6 km/h 64% 0 mm FEW
12:48 19.4 °C 12.6 °C 1018.8 hPa WNW 1.9 km/h   65% 0 mm FEW
12:53 19.5 °C 11.8 °C 1018.8 hPa East 1.9 km/h 1.9 km/h 61% 0 mm FEW
12:58 19.4 °C 11.9 °C 1018.5 hPa NW 3.7 km/h   62% 0 mm FEW
13:03 19.5 °C 12.3 °C 1018.5 hPa West 1.9 km/h 1.9 km/h 63% 0 mm FEW
13:09 19.7 °C 12.9 °C 1018.5 hPa NNE 1.9 km/h 1.9 km/h 65% 0 mm FEW
13:14 19.8 °C 12.3 °C 1018.5 hPa Calm     62% 0 mm FEW
13:19 19.9 °C 12.4 °C 1018.2 hPa SE 1.6 km/h   62% 0 mm FEW
13:24 19.9 °C 11.7 °C 1018.2 hPa Calm     59% 0 mm FEW
13:29 19.9 °C 11.7 °C 1018.2 hPa West 1.9 km/h 1.9 km/h 59% 0 mm FEW
13:34 20.1 °C 11.8 °C 1018.2 hPa NW 3.7 km/h 3.7 km/h 59% 0 mm FEW
13:39 20.2 °C 10.6 °C 1018.2 hPa West 3.7 km/h 3.7 km/h 54% 0 mm FEW
13:40 20.2 °C 11.1 °C 1018.2 hPa West 3.7 km/h 3.7 km/h 56% 0 mm FEW
13:45 20.1 °C 11.3 °C 1017.8 hPa Calm     57% 0 mm FEW
13:50 20.2 °C 11.4 °C 1017.8 hPa Calm     57% 0 mm FEW
13:55 20.6 °C 11.7 °C 1017.8 hPa NW 1.9 km/h 1.9 km/h 57% 0 mm FEW
14:00 20.8 °C 10.8 °C 1017.8 hPa NNE 1.9 km/h   53% 0 mm FEW
14:06 21.1 °C 11.1 °C 1017.8 hPa Calm     53% 0 mm FEW
14:11 21.2 °C 11.8 °C 1017.5 hPa Calm     55% 0 mm FEW
14:16 21.7 °C 11.7 °C 1017.5 hPa NNW 1.9 km/h 1.9 km/h 53% 0 mm FEW
14:21 21.8 °C 11.5 °C 1017.5 hPa West 3.2 km/h 3.2 km/h 52% 0 mm FEW
14:26 21.7 °C 10.8 °C 1017.5 hPa West 3.7 km/h 3.7 km/h 50% 0 mm FEW
14:31 21.6 °C 11.1 °C 1017.2 hPa WNW 5.6 km/h 5.6 km/h 51% 0 mm FEW
14:36 21.6 °C 10.7 °C 1017.2 hPa WNW 1.9 km/h 1.9 km/h 50% 0 mm FEW
14:41 21.6 °C 11.1 °C 1017.2 hPa West 1.9 km/h 1.9 km/h 51% 0 mm FEW
14:46 21.7 °C 11.1 °C 1016.8 hPa Calm     51% 0 mm FEW
14:52 21.8 °C 11.2 °C 1016.8 hPa Calm     51% 0 mm FEW
14:57 21.8 °C 10.6 °C 1016.5 hPa ESE 1.9 km/h 1.9 km/h 49% 0 mm FEW
15:02 21.6 °C 10.4 °C 1016.5 hPa Calm     49% 0 mm FEW
15:07 21.6 °C 10.4 °C 1016.5 hPa NNW 1.9 km/h 1.9 km/h 49% 0 mm FEW
15:12 21.4 °C 10.6 °C 1016.5 hPa Calm   0.3 km/h 50% 0 mm FEW
15:17 21.2 °C 10.9 °C 1016.1 hPa Calm     52% 0 mm FEW
15:22 21.1 °C 11.4 °C 1016.1 hPa SE 3.7 km/h 3.7 km/h 54% 0 mm FEW
15:27 21.2 °C 10.3 °C 1016.1 hPa West 5.6 km/h 5.6 km/h 50% 0 mm FEW
15:32 21.3 °C 10.8 °C 1016.1 hPa Calm     51% 0 mm FEW
15:37 21.5 °C 10.6 °C 1016.1 hPa NW 1.9 km/h 1.9 km/h 50% 0 mm FEW
15:43 21.5 °C 10.9 °C 1016.1 hPa NW 1.9 km/h   51% 0 mm FEW
15:48 21.4 °C 10.8 °C 1016.1 hPa Calm     51% 0 mm FEW
15:53 21.1 °C 10.9 °C 1015.8 hPa WNW 3.2 km/h 3.2 km/h 52% 0 mm FEW
15:58 20.8 °C 11.1 °C 1015.8 hPa NNW 1.9 km/h 1.9 km/h 54% 0 mm FEW
16:03 20.5 °C 10.9 °C 1015.8 hPa Calm     54% 0 mm SCT
16:08 20.3 °C 11 °C 1015.8 hPa Calm     55% 0 mm SCT
16:13 20.3 °C 11.5 °C 1015.8 hPa WSW 1.9 km/h 1.9 km/h 57% 0 mm SCT
16:18 20.2 °C 11.2 °C 1015.8 hPa Calm     56% 0 mm SCT
16:24 20.2 °C 11.2 °C 1015.8 hPa North 1.9 km/h   56% 0 mm SCT
16:29 20.2 °C 10.9 °C 1015.8 hPa WNW 1.9 km/h 1.9 km/h 55% 0 mm SCT
16:34 20.1 °C 11.1 °C 1015.8 hPa Calm     56% 0 mm SCT
16:39 20 °C 11.5 °C 1015.8 hPa Calm     58% 0 mm SCT
16:45 19.9 °C 10.6 °C 1015.8 hPa NE 3.7 km/h   55% 0 mm SCT
16:50 20 °C 11.7 °C 1015.8 hPa Calm   1.6 km/h 59% 0 mm SCT
16:55 20.1 °C 11.6 °C 1015.8 hPa Calm     58% 0 mm SCT
17:00 20.1 °C 11.6 °C 1015.8 hPa Calm   1.6 km/h 58% 0 mm SCT
17:05 20.1 °C 11.8 °C 1015.8 hPa Calm     59% 0 mm FEW
17:10 20.1 °C 11.8 °C 1015.8 hPa Calm     59% 0 mm FEW
17:15 20.1 °C 11.3 °C 1015.5 hPa Calm     57% 0 mm FEW
17:20 20 °C 11.2 °C 1015.5 hPa Calm   1.6 km/h 57% 0 mm FEW
17:25 19.9 °C 10.3 °C 1015.5 hPa Calm     54% 0 mm FEW
17:30 19.8 °C 9.9 °C 1015.5 hPa Calm     53% 0 mm FEW
17:35 19.7 °C 10.4 °C 1015.5 hPa Calm     55% 0 mm FEW
17:40 19.5 °C 10.5 °C 1015.5 hPa Calm     56% 0 mm FEW
17:45 19.3 °C 10.6 °C 1015.1 hPa Calm     57% 0 mm FEW
17:50 19.1 °C 10.7 °C 1015.1 hPa Calm     58% 0 mm FEW
17:55 18.9 °C 10.7 °C 1015.1 hPa Calm   1.6 km/h 59% 0 mm FEW
18:00 18.8 °C 10.3 °C 1015.5 hPa Calm   1.6 km/h 58% 0 mm FEW
18:05 18.7 °C 10.8 °C 1015.5 hPa Calm     60% 0 mm FEW
18:10 18.6 °C 9.9 °C 1015.5 hPa Calm     57% 0 mm FEW
18:15 18.5 °C 9.6 °C 1015.5 hPa Calm   1.6 km/h 56% 0 mm FEW
18:20 18.4 °C 10.3 °C 1015.5 hPa Calm     59% 0 mm FEW
18:25 18.3 °C 10.4 °C 1015.5 hPa Calm     60% 0 mm FEW
18:30 18.2 °C 10.3 °C 1015.5 hPa Calm     60% 0 mm FEW
18:35 18.1 °C 10.2 °C 1015.5 hPa Calm     60% 0 mm FEW
18:40 18 °C 10.4 °C 1015.5 hPa Calm     61% 0 mm FEW
18:45 17.9 °C 10.6 °C 1015.5 hPa Calm     62% 0 mm FEW
18:50 17.8 °C 10.7 °C 1015.5 hPa Calm     63% 0 mm FEW
18:55 17.8 °C 10.6 °C 1015.5 hPa Calm     63% 0 mm FEW
19:00 17.7 °C 10.8 °C 1015.5 hPa Calm     64% 0 mm FEW
19:05 17.6 °C 10.7 °C 1015.5 hPa Calm     64% 0 mm BKN
19:10 17.4 °C 11 °C 1015.5 hPa Calm     66% 0 mm BKN
19:15 17.2 °C 10.8 °C 1015.5 hPa Calm     66% 0 mm BKN
19:20 17 °C 10.6 °C 1015.5 hPa Calm     66% 0 mm BKN
19:25 17.1 °C 10.4 °C 1015.5 hPa Calm     65% 0 mm BKN
19:30 17.2 °C 10.6 °C 1015.5 hPa Calm     65% 0 mm BKN
19:35 17.3 °C 10.4 °C 1015.5 hPa Calm     64% 0 mm BKN
19:40 17.3 °C 10.5 °C 1015.8 hPa Calm     64% 0 mm BKN
19:45 17.4 °C 10.5 °C 1015.8 hPa Calm     64% 0 mm BKN
19:50 17.4 °C 10.6 °C 1015.8 hPa Calm     64% 0 mm BKN
19:55 17.4 °C 10.6 °C 1015.8 hPa Calm     64% 0 mm BKN
20:00 17.4 °C 10.5 °C 1015.8 hPa Calm     64% 0 mm BKN
20:05 17.3 °C 10.4 °C 1015.8 hPa Calm     64% 0 mm BKN
20:10 17.3 °C 10.4 °C 1015.8 hPa Calm     64% 0 mm BKN
20:15 17.2 °C 10.6 °C 1015.8 hPa Calm   1.6 km/h 65% 0 mm BKN
20:20 17.2 °C 10.6 °C 1015.8 hPa Calm   1.6 km/h 65% 0 mm BKN
20:25 17.3 °C 10.7 °C 1015.8 hPa Calm   1.6 km/h 65% 0 mm BKN
20:30 17.3 °C 10.2 °C 1015.8 hPa Calm   1.6 km/h 63% 0 mm BKN
20:35 17.3 °C 10 °C 1015.8 hPa Calm   1.6 km/h 62% 0 mm BKN
20:40 17.4 °C 9.8 °C 1015.8 hPa Calm   1.6 km/h 61% 0 mm BKN
20:45 17.4 °C 9.8 °C 1015.8 hPa Calm     61% 0 mm BKN
20:50 17.4 °C 9.8 °C 1015.8 hPa Calm   1.6 km/h 61% 0 mm BKN
20:55 17.4 °C 9.8 °C 1015.8 hPa Calm   1.6 km/h 61% 0 mm BKN
21:00 17.3 °C 9.5 °C 1015.8 hPa Calm   1.6 km/h 60% 0 mm BKN
21:05 17.3 °C 9.9 °C 1015.8 hPa Calm     62% 0 mm BKN
21:10 17.2 °C 9.3 °C 1015.8 hPa Calm     60% 0 mm BKN
21:15 17.1 °C 9.3 °C 1016.1 hPa Calm     60% 0 mm BKN
21:20 17 °C 9.2 °C 1015.8 hPa Calm     60% 0 mm BKN
21:25 16.9 °C 9.8 °C 1015.8 hPa Calm     63% 0 mm BKN
21:30 16.7 °C 9.7 °C 1015.8 hPa Calm     63% 0 mm BKN
21:35 16.7 °C 9.8 °C 1016.1 hPa Calm     64% 0 mm BKN
21:40 16.6 °C 9.3 °C 1016.1 hPa Calm     62% 0 mm BKN
21:45 16.6 °C 9.3 °C 1016.1 hPa Calm     62% 0 mm BKN
21:50 16.6 °C 9.7 °C 1015.8 hPa Calm     64% 0 mm BKN
21:55 16.5 °C 9.9 °C 1015.8 hPa Calm     65% 0 mm BKN
22:00 16.4 °C 9.6 °C 1015.8 hPa Calm     64% 0 mm BKN
22:05 16.4 °C 9.8 °C 1015.8 hPa Calm   1.6 km/h 65% 0 mm BKN
22:10 16.3 °C 9.9 °C 1015.5 hPa Calm     66% 0 mm BKN
22:15 16.3 °C 9.7 °C 1015.5 hPa Calm     65% 0 mm BKN
22:20 16.3 °C 9.3 °C 1015.5 hPa Calm     63% 0 mm BKN
22:25 16.4 °C 9.1 °C 1015.5 hPa Calm   1.6 km/h 62% 0 mm BKN
22:30 16.4 °C 9.1 °C 1015.5 hPa Calm   1.6 km/h 62% 0 mm BKN
22:35 16.4 °C 8.8 °C 1015.8 hPa Calm   1.6 km/h 61% 0 mm BKN
22:40 16.4 °C 9.1 °C 1015.8 hPa Calm     62% 0 mm BKN
22:45 16.3 °C 9.2 °C 1015.8 hPa Calm     63% 0 mm BKN
22:50 16.3 °C 9.2 °C 1015.8 hPa Calm     63% 0 mm BKN
22:55 16.3 °C 9.3 °C 1015.8 hPa Calm     63% 0 mm BKN
23:00 16.4 °C 9.1 °C 1015.8 hPa Calm     62% 0 mm BKN
23:05 16.5 °C 9.2 °C 1015.8 hPa NNW 1.9 km/h   62% 0 mm BKN
23:10 16.6 °C 9 °C 1015.5 hPa Calm     61% 0 mm BKN
23:15 16.6 °C 9 °C 1015.5 hPa Calm     61% 0 mm BKN
23:20 16.5 °C 9.2 °C 1015.5 hPa Calm     62% 0 mm BKN
23:21 16.5 °C 8.9 °C 1015.5 hPa Calm     61% 0 mm BKN
23:26 16.4 °C 8.8 °C 1015.5 hPa NW 3.2 km/h 3.2 km/h 61% 0 mm BKN
23:33 16.5 °C 8.4 °C 1015.5 hPa Calm     59% 0 mm BKN
23:38 16.5 °C 8.2 °C 1015.5 hPa West 1.9 km/h 1.9 km/h 58% 0 mm BKN
23:43 16.4 °C 8.7 °C 1015.5 hPa Calm     60% 0 mm BKN
23:48 16.3 °C 8.6 °C 1015.5 hPa NNW 1.9 km/h 1.9 km/h 60% 0 mm BKN
23:53 16.3 °C 8.6 °C 1015.5 hPa WNW 1.9 km/h 1.9 km/h 60% 0 mm BKN
23:58 16.4 °C 8.4 °C 1015.1 hPa NNW 1.9 km/h   59% 0 mm BKN
Piedmont Bend
Compliments of Weather Underground - 2 mb